Winona, Tennessee
Current Conditions -  °F | °C
As of 4:53 AM on Monday 22 Dec 2014 (Local Time) from KOQT Reporting Station
Light Rain Light Rain  
Wind Chill: 44°   Ceiling: 3200
Heat Index: 44°   Visibility: 10mi
Dew Point: 38°   Wind: 0mph
Humidity: 79%   Direction: NA
Pressure: 30.04"   Gusts: NA
Location:  36.37°N, 84.45°W
Report Text: KOQT 220953Z AUTO 00000KT 10SM -RA OVC032 07/03 A3004 RMK AO2 RAB07E17B50 SLP178 P0000 T00670033
Loading
Personal Weather Stations






























Interactive Weather Map New forecast layout! Learn more

10-Day Weather Forecast

Advertisements
Track Severe Weather on mobile